createdAt,value
2019-04-06T00:03:53.647Z,57.77
2019-04-06T00:07:58.557Z,62.57
2019-04-06T00:12:03.467Z,61.90
2019-04-06T00:16:09.975Z,49.90
2019-04-06T00:20:14.889Z,48.37
2019-04-06T00:24:19.869Z,57.33
2019-04-06T00:28:24.795Z,57.07
2019-04-06T00:32:37.848Z,54.53
2019-04-06T00:36:42.763Z,55.80
2019-04-06T00:40:47.676Z,61.97
2019-04-06T00:44:52.814Z,63.47
2019-04-06T00:48:57.718Z,64.83
2019-04-06T00:53:02.654Z,65.60
2019-04-06T00:57:07.574Z,60.00
2019-04-06T01:01:12.491Z,52.07
2019-04-06T01:05:17.474Z,56.23
2019-04-06T01:09:22.436Z,62.93
2019-04-06T01:13:27.407Z,51.30
2019-04-06T01:17:32.272Z,55.90
2019-04-06T01:21:37.188Z,48.77
2019-04-06T01:25:43.173Z,52.43
2019-04-06T01:29:48.105Z,65.17
2019-04-06T01:33:53.030Z,74.27
2019-04-06T01:37:57.966Z,75.63
2019-04-06T01:42:02.922Z,73.87
2019-04-06T01:46:07.783Z,57.13
2019-04-06T01:50:12.787Z,56.57
2019-04-06T01:54:18.669Z,61.70
2019-04-06T01:58:23.610Z,65.83
2019-04-06T02:02:30.168Z,61.97
2019-04-06T02:06:35.090Z,63.37
2019-04-06T02:10:40.007Z,66.70
2019-04-06T02:14:44.964Z,74.40
2019-04-06T02:18:49.917Z,68.27
2019-04-06T02:22:54.834Z,69.43
2019-04-06T02:26:59.925Z,78.47
2019-04-06T02:31:09.486Z,73.87
2019-04-06T02:35:18.527Z,91.00
2019-04-06T02:39:34.027Z,77.97
2019-04-06T02:43:40.216Z,65.27
2019-04-06T02:47:45.126Z,50.60
2019-04-06T02:51:50.040Z,49.50
2019-04-06T02:55:54.945Z,52.90
2019-04-06T02:59:59.983Z,50.80
2019-04-06T03:04:04.919Z,58.50
2019-04-06T03:08:09.839Z,61.73
2019-04-06T03:12:14.759Z,69.63
2019-04-06T03:16:19.684Z,104.27
2019-04-06T03:20:24.593Z,79.57
2019-04-06T03:24:29.515Z,169.53
2019-04-06T03:28:34.432Z,188.47
2019-04-06T03:32:39.520Z,70.87
2019-04-06T03:36:44.456Z,54.93
2019-04-06T03:40:49.386Z,53.47
2019-04-06T03:44:54.301Z,51.53
2019-04-06T03:48:59.216Z,45.87
2019-04-06T03:53:04.138Z,48.63
2019-04-06T03:57:15.993Z,47.70
2019-04-06T04:01:15.678Z,48.37
2019-04-06T04:05:20.581Z,45.97
2019-04-06T04:09:25.563Z,52.27
2019-04-06T04:13:30.503Z,44.83
2019-04-06T04:17:35.552Z,49.37
2019-04-06T04:21:40.542Z,49.53
2019-04-06T04:25:45.669Z,63.97
2019-04-06T04:29:50.547Z,47.53
2019-04-06T04:33:55.467Z,45.60
2019-04-06T04:38:00.407Z,44.77
2019-04-06T04:42:05.327Z,53.10
2019-04-06T04:46:10.213Z,68.73
2019-04-06T04:50:15.136Z,54.93
2019-04-06T04:54:20.047Z,56.03
2019-04-06T04:58:24.958Z,60.13
2019-04-06T05:02:29.877Z,294.63
2019-04-06T05:06:34.816Z,263.10
2019-04-06T05:10:39.755Z,170.13
2019-04-06T05:14:59.758Z,495.37
2019-04-06T05:19:04.676Z,487.60
2019-04-06T05:23:09.609Z,440.00
2019-04-06T05:27:14.532Z,140.93
2019-04-06T05:31:19.458Z,241.07
2019-04-06T05:35:24.385Z,133.00
2019-04-06T05:39:29.311Z,207.90
2019-04-06T05:43:34.235Z,139.40
2019-04-06T05:47:39.145Z,275.33
2019-04-06T05:51:44.071Z,99.70
2019-04-06T05:55:49.055Z,204.90
2019-04-06T05:59:53.967Z,295.67
2019-04-06T06:03:58.891Z,136.07
2019-04-06T06:08:03.797Z,86.70
2019-04-06T06:12:11.479Z,196.00
2019-04-06T06:16:16.355Z,45.30
2019-04-06T06:20:21.491Z,47.03
2019-04-06T06:24:26.369Z,24.40
2019-04-06T06:28:31.273Z,22.40
2019-04-06T06:32:36.193Z,24.03
2019-04-06T06:36:41.080Z,40.93
2019-04-06T06:40:46.050Z,34.47
2019-04-06T06:44:51.056Z,29.07
2019-04-06T06:48:55.954Z,33.57
2019-04-06T06:53:00.910Z,33.10
2019-04-06T06:57:05.849Z,31.10
2019-04-06T07:01:10.778Z,33.40
2019-04-06T07:05:15.715Z,32.20
2019-04-06T07:09:20.873Z,33.77
2019-04-06T07:13:25.751Z,36.90
2019-04-06T07:17:30.884Z,43.03
2019-04-06T07:21:35.994Z,41.03
2019-04-06T07:25:41.128Z,42.17
2019-04-06T07:29:46.022Z,45.80
2019-04-06T07:33:51.143Z,43.10
2019-04-06T07:37:56.072Z,46.07
2019-04-06T07:42:01.025Z,44.30
2019-04-06T07:46:06.166Z,41.47
2019-04-06T07:50:11.312Z,44.77
2019-04-06T07:54:16.240Z,66.53
2019-04-06T07:58:21.243Z,43.27
2019-04-06T08:02:26.260Z,42.07
2019-04-06T08:06:31.176Z,38.97
2019-04-06T08:10:36.103Z,39.07
2019-04-06T08:14:41.027Z,39.20
2019-04-06T08:18:46.032Z,41.97
2019-04-06T08:22:50.956Z,40.83
2019-04-06T08:26:55.891Z,40.67
2019-04-06T08:31:01.029Z,42.37
2019-04-06T08:35:07.813Z,35.53
2019-04-06T08:39:12.767Z,36.47
2019-04-06T08:43:17.735Z,40.43
2019-04-06T08:47:22.699Z,38.37
2019-04-06T08:51:27.670Z,38.30
2019-04-06T08:55:32.695Z,37.43
2019-04-06T08:59:37.620Z,40.17
2019-04-06T09:03:42.568Z,37.57
2019-04-06T09:07:48.483Z,39.03
2019-04-06T09:11:53.472Z,44.20
2019-04-06T09:15:58.653Z,41.00
2019-04-06T09:20:05.225Z,41.07
2019-04-06T09:24:10.117Z,37.13
2019-04-06T09:28:15.096Z,40.57
2019-04-06T09:32:24.580Z,42.20
2019-04-06T09:36:29.529Z,42.43
2019-04-06T09:40:43.515Z,43.87
2019-04-06T09:44:53.136Z,40.23
2019-04-06T09:49:08.682Z,44.70
2019-04-06T09:53:15.319Z,40.77
2019-04-06T09:57:40.054Z,42.30
2019-04-06T10:01:55.149Z,41.03
2019-04-06T10:06:14.629Z,44.07
2019-04-06T10:10:24.679Z,43.33
2019-04-06T10:14:39.832Z,43.73
2019-04-06T10:19:04.041Z,43.30
2019-04-06T10:23:28.646Z,45.80
2019-04-06T10:27:36.402Z,44.73
2019-04-06T10:32:03.585Z,44.33
2019-04-06T10:36:19.168Z,44.63
2019-04-06T10:40:28.770Z,46.80
2019-04-06T10:44:46.651Z,41.60
2019-04-06T10:48:54.857Z,45.03
2019-04-06T10:53:08.168Z,45.07
2019-04-06T10:57:23.793Z,44.63
2019-04-06T11:01:39.882Z,42.50
2019-04-06T11:05:51.015Z,45.13
2019-04-06T11:10:22.134Z,40.40
2019-04-06T11:14:49.188Z,43.27
2019-04-06T11:19:13.848Z,45.00
2019-04-06T11:23:40.795Z,42.37
2019-04-06T11:27:53.545Z,43.87
2019-04-06T11:32:17.069Z,44.17
2019-04-06T11:36:26.566Z,42.00
2019-04-06T11:40:39.295Z,42.27
2019-04-06T11:44:57.882Z,44.43
2019-04-06T11:49:04.469Z,41.43
2019-04-06T11:53:10.981Z,35.70
2019-04-06T11:57:23.873Z,38.57
2019-04-06T12:01:47.049Z,32.37
2019-04-06T12:05:53.608Z,34.87
2019-04-06T12:10:02.998Z,37.03
2019-04-06T12:14:19.887Z,37.57
2019-04-06T12:18:31.895Z,32.13
2019-04-06T12:22:38.455Z,32.87
2019-04-06T12:26:47.712Z,37.03
2019-04-06T12:30:54.270Z,36.03
2019-04-06T12:35:03.409Z,36.97
2019-04-06T12:39:09.968Z,34.57
2019-04-06T12:43:35.312Z,34.27
2019-04-06T12:47:48.316Z,35.23
2019-04-06T12:52:08.254Z,34.37
2019-04-06T12:56:16.433Z,33.43
2019-04-06T13:00:35.342Z,35.00
2019-04-06T13:05:01.730Z,32.90
2019-04-06T13:09:26.286Z,31.10
2019-04-06T13:13:46.512Z,33.27
2019-04-06T13:18:10.051Z,33.27
2019-04-06T13:22:21.418Z,31.23
2019-04-06T13:26:32.791Z,34.80
2019-04-06T13:35:16.089Z,31.40
2019-04-06T13:39:24.577Z,31.40
2019-04-06T13:43:46.600Z,23.47
2019-04-06T13:48:02.440Z,20.70
2019-04-06T13:52:15.459Z,23.90
2019-04-06T13:56:25.403Z,23.47
2019-04-06T14:00:37.946Z,23.17
2019-04-06T14:04:49.177Z,22.17
2019-04-06T14:09:13.185Z,21.70
2019-04-06T14:13:42.299Z,23.93
2019-04-06T14:17:53.393Z,25.17
2019-04-06T14:22:13.225Z,22.57
2019-04-06T14:26:35.802Z,23.80
2019-04-06T14:30:58.743Z,21.90
2019-04-06T14:35:13.571Z,20.33
2019-04-06T14:39:20.089Z,20.87
2019-04-06T14:43:36.898Z,18.87
2019-04-06T14:48:02.681Z,23.33
2019-04-06T14:52:13.401Z,19.20
2019-04-06T14:56:48.679Z,21.20
2019-04-06T15:01:10.462Z,18.63
2019-04-06T15:05:28.613Z,20.20
2019-04-06T15:09:35.429Z,19.00
2019-04-06T15:13:45.135Z,21.03
2019-04-06T15:17:54.125Z,21.30
2019-04-06T15:22:16.530Z,19.80
2019-04-06T15:26:35.254Z,18.20
2019-04-06T15:35:29.292Z,19.20
2019-04-06T15:39:38.798Z,19.67
2019-04-06T15:43:48.315Z,18.40
2019-04-06T15:47:54.919Z,18.27
2019-04-06T15:52:10.167Z,19.00
2019-04-06T15:56:12.479Z,17.80
2019-04-06T16:00:28.455Z,16.77
2019-04-06T16:04:37.902Z,16.00
2019-04-06T16:08:59.589Z,14.80
2019-04-06T16:13:12.199Z,15.17
2019-04-06T16:17:19.685Z,15.87
2019-04-06T16:21:35.216Z,14.67
2019-04-06T16:25:51.025Z,13.23
2019-04-06T16:30:14.217Z,16.40
2019-04-06T16:34:32.762Z,13.10
2019-04-06T16:38:48.214Z,14.73
2019-04-06T16:43:13.246Z,15.70
2019-04-06T16:47:35.063Z,13.30
2019-04-06T16:51:44.550Z,18.67
2019-04-06T16:56:07.628Z,14.53
2019-04-06T17:00:23.872Z,21.83
2019-04-06T17:04:39.486Z,16.43
2019-04-06T17:09:02.431Z,13.57
2019-04-06T17:13:26.138Z,14.47
2019-04-06T17:17:41.864Z,12.70
2019-04-06T17:21:54.347Z,14.00
2019-04-06T17:26:03.891Z,12.83
2019-04-06T17:30:11.092Z,16.73
2019-04-06T17:34:17.716Z,14.50
2019-04-06T17:38:30.213Z,14.60
2019-04-06T17:42:51.593Z,15.73
2019-04-06T17:46:58.264Z,14.50
2019-04-06T17:51:16.803Z,15.93
2019-04-06T17:55:23.426Z,16.63
2019-04-06T17:59:30.134Z,20.97
2019-04-06T18:03:36.679Z,16.07
2019-04-06T18:08:01.502Z,17.47
2019-04-06T18:12:24.590Z,15.03
2019-04-06T18:16:31.272Z,16.47
2019-04-06T18:20:36.137Z,15.20
2019-04-06T18:24:41.094Z,16.87
2019-04-06T18:28:46.173Z,16.07
2019-04-06T18:33:03.650Z,17.17
2019-04-06T18:37:13.607Z,15.30
2019-04-06T18:41:18.554Z,13.57
2019-04-06T18:45:23.541Z,16.50
2019-04-06T18:49:28.487Z,16.23
2019-04-06T18:53:33.433Z,23.77
2019-04-06T18:57:38.435Z,22.10
2019-04-06T19:01:44.843Z,21.27
2019-04-06T19:05:50.595Z,15.30
2019-04-06T19:09:55.852Z,18.20
2019-04-06T19:14:01.197Z,18.33
2019-04-06T19:18:06.264Z,19.87
2019-04-06T19:22:12.346Z,15.33
2019-04-06T19:26:17.290Z,15.40
2019-04-06T19:30:22.548Z,15.73
2019-04-06T19:34:27.472Z,15.10
2019-04-06T19:38:32.554Z,14.90
2019-04-06T19:42:37.465Z,15.70
2019-04-06T19:46:42.373Z,19.30
2019-04-06T19:50:47.525Z,15.80
2019-04-06T19:54:52.481Z,17.73
2019-04-06T19:58:57.396Z,19.77
2019-04-06T20:03:02.335Z,18.87
2019-04-06T20:07:07.281Z,20.27
2019-04-06T20:11:12.287Z,19.70
2019-04-06T20:15:17.568Z,16.57
2019-04-06T20:19:23.034Z,17.43
2019-04-06T20:23:27.974Z,18.93
2019-04-06T20:27:32.895Z,24.83
2019-04-06T20:31:37.813Z,26.47
2019-04-06T20:35:42.733Z,28.37
2019-04-06T20:39:47.652Z,22.87
2019-04-06T20:43:52.811Z,21.50
2019-04-06T20:47:57.677Z,21.50
2019-04-06T20:52:02.831Z,24.47
2019-04-06T20:56:07.751Z,25.17
2019-04-06T21:00:13.115Z,23.90
2019-04-06T21:04:19.379Z,22.57
2019-04-06T21:08:24.339Z,22.30
2019-04-06T21:12:29.268Z,22.63
2019-04-06T21:16:34.321Z,22.83
2019-04-06T21:20:39.303Z,25.20
2019-04-06T21:24:44.277Z,19.73
2019-04-06T21:28:49.678Z,20.47
2019-04-06T21:32:55.169Z,18.43
2019-04-06T21:37:00.065Z,25.47
2019-04-06T21:41:05.116Z,22.40
2019-04-06T21:45:10.624Z,21.17
2019-04-06T21:49:15.507Z,23.33
2019-04-06T21:53:20.463Z,24.23
2019-04-06T21:57:25.385Z,22.83
2019-04-06T22:01:31.020Z,24.10
2019-04-06T22:05:36.292Z,21.80
2019-04-06T22:09:41.343Z,21.43
2019-04-06T22:13:46.263Z,25.40
2019-04-06T22:17:51.214Z,21.73
2019-04-06T22:21:56.149Z,20.93
2019-04-06T22:26:01.546Z,25.10
2019-04-06T22:30:09.774Z,22.70
2019-04-06T22:34:14.819Z,24.07
2019-04-06T22:38:20.347Z,23.13
2019-04-06T22:42:25.336Z,21.17
2019-04-06T22:46:30.270Z,22.33
2019-04-06T22:50:35.200Z,23.53
2019-04-06T22:54:40.131Z,20.37
2019-04-06T22:58:45.053Z,20.60
2019-04-06T23:03:08.169Z,21.47
2019-04-06T23:07:14.665Z,26.47
2019-04-06T23:11:20.741Z,26.63
2019-04-06T23:15:26.138Z,32.43
2019-04-06T23:19:31.148Z,28.67
2019-04-06T23:23:36.053Z,25.13
2019-04-06T23:27:40.977Z,23.23
2019-04-06T23:31:46.668Z,24.83
2019-04-06T23:35:51.790Z,25.50
2019-04-06T23:39:57.171Z,26.00
2019-04-06T23:44:33.019Z,24.70
2019-04-06T23:48:38.128Z,30.30
2019-04-06T23:52:43.406Z,27.47
2019-04-06T23:56:48.460Z,27.67
